Time;durP1;ratioP1;P1;durP2;ratioP2;P2;SDS_P1;SDS_P2;PMS_P1;PMS_P2;Temp;Humidity;BMP_temperature;BMP_pressure;BME280_temperature;BME280_humidity;BME280_pressure;Samples;Min_cycle;Max_cycle;Signal;HPM_P1;HPM_P2
2023/10/29 00:02:19;;;;;;;48.25;11.55;;;;;;;;;;5007920;28;20038;-61
2023/10/29 00:04:47;;;;;;;32.38;11.93;;;;;;;;;;5008709;28;20053;-61
2023/10/29 00:07:14;;;;;;;41.50;12.77;;;;;;;;;;5007224;28;20045;-62
2023/10/29 00:09:40;;;;;;;39.00;12.88;;;;;;;;;;5005971;28;20043;-62
2023/10/29 00:12:07;;;;;;;49.88;13.20;;;;;;;;;;5009035;28;20385;-62
2023/10/29 00:14:34;;;;;;;33.92;13.02;;;;;;;;;;5010014;28;20522;-62
2023/10/29 00:17:00;;;;;;;46.25;13.30;;;;;;;;;;5005440;28;20050;-65
2023/10/29 00:19:27;;;;;;;29.10;11.23;;;;;;;;;;5010711;28;20076;-62
2023/10/29 00:21:53;;;;;;;30.90;11.32;;;;;;;;;;5012085;28;20073;-62
2023/10/29 00:24:22;;;;;;;30.75;12.35;;;;;;;;;;5013650;28;20832;-60
2023/10/29 00:26:48;;;;;;;31.70;11.65;;;;;;;;;;5014447;28;20520;-61
2023/10/29 00:29:15;;;;;;;67.72;13.45;;;;;;;;;;5011978;28;20121;-60
2023/10/29 00:31:42;;;;;;;32.67;12.00;;;;;;;;;;5011004;28;20074;-61
2023/10/29 00:34:08;;;;;;;31.15;11.98;;;;;;;;;;5011152;28;20479;-62
2023/10/29 00:36:35;;;;;;;35.20;11.40;;;;;;;;;;5011803;28;20038;-62
2023/10/29 00:39:02;;;;;;;34.45;11.25;;;;;;;;;;5012661;28;20126;-61
2023/10/29 00:41:29;;;;;;;42.00;12.90;;;;;;;;;;5006983;28;20052;-64
2023/10/29 00:43:56;;;;;;;33.78;12.35;;;;;;;;;;5011729;28;20046;-61
2023/10/29 00:46:23;;;;;;;42.25;12.35;;;;;;;;;;5025157;28;20053;-61
2023/10/29 00:48:50;;;;;;;33.30;12.15;;;;;;;;;;5008052;28;20054;-61
2023/10/29 00:51:17;;;;;;;38.90;13.52;;;;;;;;;;5014770;28;20133;-61
2023/10/29 00:53:45;;;;;;;47.90;12.85;;;;;;;;;;5009402;28;20046;-61
2023/10/29 00:56:12;;;;;;;72.97;14.25;;;;;;;;;;5008855;28;22163;-62
2023/10/29 00:58:39;;;;;;;32.45;12.80;;;;;;;;;;5010282;28;20069;-62
2023/10/29 01:01:06;;;;;;;30.40;11.48;;;;;;;;;;5011525;28;20050;-61
2023/10/29 01:03:32;;;;;;;36.80;13.57;;;;;;;;;;5006831;28;20046;-61
2023/10/29 01:05:59;;;;;;;35.25;12.27;;;;;;;;;;5007864;28;20046;-61
2023/10/29 01:08:26;;;;;;;54.60;13.85;;;;;;;;;;5010348;28;20046;-61
2023/10/29 01:10:53;;;;;;;46.65;13.05;;;;;;;;;;5016920;28;20519;-60
2023/10/29 01:13:20;;;;;;;35.70;13.63;;;;;;;;;;5005341;28;20050;-61
2023/10/29 01:15:46;;;;;;;43.45;12.82;;;;;;;;;;5005977;28;20045;-61
2023/10/29 01:18:13;;;;;;;40.60;12.85;;;;;;;;;;5012140;28;20045;-62
2023/10/29 01:20:40;;;;;;;41.08;12.27;;;;;;;;;;5007818;28;20044;-62
2023/10/29 01:23:07;;;;;;;72.68;14.05;;;;;;;;;;5015086;28;20089;-62
2023/10/29 01:25:33;;;;;;;45.65;13.13;;;;;;;;;;5009379;28;20049;-61
2023/10/29 01:28:00;;;;;;;44.85;12.90;;;;;;;;;;5013945;28;20050;-61
2023/10/29 01:30:27;;;;;;;38.60;12.77;;;;;;;;;;4996292;28;20045;-61
2023/10/29 01:32:54;;;;;;;41.13;12.60;;;;;;;;;;5007964;28;20121;-62
2023/10/29 01:35:20;;;;;;;50.17;13.38;;;;;;;;;;5005652;28;20065;-61
2023/10/29 01:37:48;;;;;;;40.22;11.93;;;;;;;;;;5012149;28;21050;-61
2023/10/29 01:40:14;;;;;;;40.50;12.70;;;;;;;;;;5013901;28;20096;-61
2023/10/29 01:42:41;;;;;;;40.80;13.55;;;;;;;;;;5008106;28;20106;-61
2023/10/29 01:45:08;;;;;;;40.33;12.73;;;;;;;;;;5006939;28;20047;-61
2023/10/29 01:47:35;;;;;;;44.03;13.30;;;;;;;;;;5004813;28;20053;-61
2023/10/29 01:50:04;;;;;;;53.22;13.63;;;;;;;;;;5014138;28;20073;-62
2023/10/29 01:52:31;;;;;;;26.83;11.98;;;;;;;;;;5023215;28;20046;-62
2023/10/29 01:54:57;;;;;;;36.38;13.43;;;;;;;;;;5007326;28;20030;-61
2023/10/29 01:57:24;;;;;;;34.17;12.38;;;;;;;;;;5008129;28;20042;-61
2023/10/29 01:59:51;;;;;;;39.45;13.68;;;;;;;;;;5002611;28;20053;-61
2023/10/29 02:05:20;;;;;;;49.25;13.65;;;;;;;;;;4193229;26;23587;-58
2023/10/29 02:07:47;;;;;;;42.00;13.70;;;;;;;;;;5042795;28;20045;-58
2023/10/29 02:10:14;;;;;;;40.10;14.13;;;;;;;;;;5016758;28;20080;-59
2023/10/29 02:12:41;;;;;;;30.38;14.35;;;;;;;;;;5022168;28;20045;-60
2023/10/29 02:15:08;;;;;;;38.25;12.77;;;;;;;;;;5023939;28;20049;-59
2023/10/29 02:17:35;;;;;;;43.78;13.70;;;;;;;;;;5043152;28;20061;-59
2023/10/29 02:20:03;;;;;;;48.10;13.68;;;;;;;;;;5043132;28;20045;-60
2023/10/29 02:22:29;;;;;;;43.40;12.32;;;;;;;;;;5027412;28;20049;-61
2023/10/29 02:24:56;;;;;;;40.47;12.48;;;;;;;;;;5040855;28;20384;-60
2023/10/29 02:27:22;;;;;;;47.53;12.73;;;;;;;;;;5043503;28;20051;-59
2023/10/29 02:29:49;;;;;;;57.30;14.25;;;;;;;;;;5027892;28;20042;-60
2023/10/29 02:32:16;;;;;;;82.05;15.43;;;;;;;;;;5041672;28;20156;-59
2023/10/29 02:34:42;;;;;;;46.13;13.93;;;;;;;;;;5025917;28;20041;-59
2023/10/29 02:37:09;;;;;;;34.28;11.52;;;;;;;;;;5027723;28;20048;-58
2023/10/29 02:39:36;;;;;;;32.58;13.00;;;;;;;;;;5044778;28;20446;-60
2023/10/29 02:42:03;;;;;;;40.78;12.95;;;;;;;;;;5042161;28;20368;-58
2023/10/29 02:44:29;;;;;;;50.60;13.18;;;;;;;;;;5041890;28;20068;-59
2023/10/29 02:46:56;;;;;;;45.58;14.43;;;;;;;;;;5039643;28;20411;-59
2023/10/29 02:49:23;;;;;;;48.40;12.70;;;;;;;;;;5032208;28;20449;-59
2023/10/29 02:51:49;;;;;;;45.08;15.75;;;;;;;;;;5038111;28;20064;-59
2023/10/29 02:54:16;;;;;;;50.20;14.18;;;;;;;;;;5042443;28;20045;-61
2023/10/29 02:56:43;;;;;;;41.38;13.00;;;;;;;;;;5042506;28;20044;-59
2023/10/29 02:59:09;;;;;;;88.65;17.33;;;;;;;;;;5040844;28;20052;-61
2023/10/29 03:01:36;;;;;;;50.25;13.23;;;;;;;;;;5025571;28;20080;-59
2023/10/29 03:04:04;;;;;;;37.15;12.93;;;;;;;;;;5039652;28;20091;-59
2023/10/29 03:06:31;;;;;;;47.50;12.98;;;;;;;;;;5021978;28;20110;-59
2023/10/29 03:08:58;;;;;;;59.92;14.00;;;;;;;;;;5042161;28;20048;-59
2023/10/29 03:11:25;;;;;;;55.45;15.10;;;;;;;;;;5042340;28;20483;-59
2023/10/29 03:13:52;;;;;;;37.40;14.05;;;;;;;;;;5039954;28;20041;-59
2023/10/29 03:16:18;;;;;;;41.88;14.45;;;;;;;;;;5042249;28;20498;-60
2023/10/29 03:18:47;;;;;;;41.75;13.68;;;;;;;;;;5024756;28;20403;-59
2023/10/29 03:21:16;;;;;;;58.70;15.30;;;;;;;;;;5030907;28;20046;-59
2023/10/29 03:23:43;;;;;;;55.70;15.52;;;;;;;;;;5025303;28;20045;-60
2023/10/29 03:26:10;;;;;;;83.07;15.43;;;;;;;;;;5040439;28;20041;-60
2023/10/29 03:28:37;;;;;;;37.85;14.48;;;;;;;;;;5039651;28;20144;-58
2023/10/29 03:31:13;;;;;;;48.20;14.57;;;;;;;;;;5042126;28;20041;-59
2023/10/29 03:33:40;;;;;;;48.15;14.85;;;;;;;;;;5037889;28;20491;-59
2023/10/29 03:36:07;;;;;;;48.40;14.48;;;;;;;;;;5045904;28;20044;-60
2023/10/29 03:38:34;;;;;;;60.22;16.33;;;;;;;;;;5041729;28;20064;-60
2023/10/29 03:41:00;;;;;;;51.08;15.82;;;;;;;;;;5042310;28;20447;-61
2023/10/29 03:43:27;;;;;;;47.55;15.82;;;;;;;;;;5022333;28;20415;-59
2023/10/29 03:45:54;;;;;;;50.58;15.50;;;;;;;;;;5041956;28;20487;-60
2023/10/29 03:48:21;;;;;;;60.63;16.13;;;;;;;;;;5041587;28;20046;-59
2023/10/29 03:50:48;;;;;;;46.90;14.93;;;;;;;;;;5040141;28;20045;-58
2023/10/29 03:53:15;;;;;;;97.07;18.08;;;;;;;;;;5022887;28;20056;-58
2023/10/29 03:55:41;;;;;;;47.90;15.93;;;;;;;;;;5039848;28;20402;-59
2023/10/29 03:58:08;;;;;;;46.38;15.68;;;;;;;;;;5026694;28;20060;-60
2023/10/29 04:00:34;;;;;;;48.83;15.55;;;;;;;;;;5042022;28;20048;-58
2023/10/29 04:03:01;;;;;;;66.80;16.45;;;;;;;;;;5039653;28;20525;-59
2023/10/29 04:05:28;;;;;;;41.13;15.27;;;;;;;;;;5040762;28;20057;-59
2023/10/29 04:07:54;;;;;;;56.78;15.95;;;;;;;;;;5041509;28;20041;-59
2023/10/29 04:10:21;;;;;;;59.25;17.95;;;;;;;;;;5039512;28;20494;-61
2023/10/29 04:12:48;;;;;;;37.75;15.02;;;;;;;;;;5033360;28;20037;-60
2023/10/29 04:15:14;;;;;;;53.92;16.50;;;;;;;;;;5044092;28;20487;-59
2023/10/29 04:17:41;;;;;;;70.25;15.90;;;;;;;;;;5045245;28;20040;-59
2023/10/29 04:20:08;;;;;;;78.38;16.77;;;;;;;;;;5044295;28;20056;-59
2023/10/29 04:22:36;;;;;;;58.90;15.60;;;;;;;;;;5045074;28;20076;-58
2023/10/29 04:25:03;;;;;;;50.45;16.08;;;;;;;;;;5043351;28;20057;-58
2023/10/29 04:27:29;;;;;;;50.05;14.63;;;;;;;;;;5043663;28;20091;-58
2023/10/29 04:29:56;;;;;;;53.42;16.08;;;;;;;;;;5043117;28;20048;-60
2023/10/29 04:32:23;;;;;;;84.15;18.73;;;;;;;;;;5044137;28;20044;-59
2023/10/29 04:34:49;;;;;;;55.50;15.95;;;;;;;;;;5024705;28;20053;-60
2023/10/29 04:37:16;;;;;;;80.35;19.70;;;;;;;;;;5045533;28;20091;-59
2023/10/29 04:39:43;;;;;;;55.10;17.45;;;;;;;;;;5045978;28;20033;-59
2023/10/29 04:42:10;;;;;;;77.80;20.80;;;;;;;;;;5043867;28;20049;-59
2023/10/29 04:44:37;;;;;;;49.03;16.95;;;;;;;;;;5045778;28;20045;-59
2023/10/29 04:47:04;;;;;;;67.95;19.08;;;;;;;;;;5044662;28;20127;-60
2023/10/29 04:49:30;;;;;;;43.75;16.95;;;;;;;;;;5046884;28;20045;-59
2023/10/29 04:51:57;;;;;;;56.70;16.60;;;;;;;;;;5045834;28;20049;-58
2023/10/29 04:54:23;;;;;;;61.28;17.65;;;;;;;;;;5046889;28;20056;-60
2023/10/29 04:56:50;;;;;;;75.43;18.77;;;;;;;;;;5026984;28;20103;-60
2023/10/29 04:59:17;;;;;;;99.30;19.05;;;;;;;;;;5044121;28;20048;-60
2023/10/29 05:01:44;;;;;;;64.15;18.70;;;;;;;;;;5044987;28;20092;-59
2023/10/29 05:04:10;;;;;;;51.33;17.17;;;;;;;;;;5043579;28;20056;-60
2023/10/29 05:06:37;;;;;;;45.47;16.75;;;;;;;;;;5024441;28;20045;-59
2023/10/29 05:09:04;;;;;;;50.97;17.20;;;;;;;;;;5044860;28;20053;-59
2023/10/29 05:11:31;;;;;;;47.83;15.77;;;;;;;;;;5036385;28;20135;-59
2023/10/29 05:13:58;;;;;;;46.42;16.48;;;;;;;;;;5044769;28;20745;-59
2023/10/29 05:16:24;;;;;;;57.85;16.52;;;;;;;;;;5046812;28;20045;-60
2023/10/29 05:18:51;;;;;;;49.22;17.42;;;;;;;;;;5042478;28;20046;-60
2023/10/29 05:21:19;;;;;;;50.03;16.55;;;;;;;;;;5044866;28;20095;-60
2023/10/29 05:23:46;;;;;;;61.90;16.45;;;;;;;;;;5043708;28;20110;-60
2023/10/29 05:26:12;;;;;;;101.97;21.05;;;;;;;;;;5042009;28;20048;-60
2023/10/29 05:28:39;;;;;;;50.92;15.98;;;;;;;;;;5041731;28;20525;-59
2023/10/29 05:31:05;;;;;;;58.03;17.05;;;;;;;;;;5041976;28;20049;-58
2023/10/29 05:33:32;;;;;;;55.35;17.08;;;;;;;;;;5040518;28;20064;-59
2023/10/29 05:35:59;;;;;;;55.67;17.60;;;;;;;;;;5044183;28;20060;-62
2023/10/29 05:38:26;;;;;;;969.83;105.53;;;;;;;;;;4979299;22;20930;-85
2023/10/29 05:40:52;;;;;;;750.08;80.38;;;;;;;;;;4950591;28;20048;-85
2023/10/29 05:43:19;;;;;;;764.83;81.97;;;;;;;;;;4953493;28;20070;-85
2023/10/29 05:45:46;;;;;;;812.97;88.68;;;;;;;;;;4959822;28;20118;-86
2023/10/29 05:48:13;;;;;;;909.15;97.95;;;;;;;;;;4956048;28;20913;-85
2023/10/29 05:50:39;;;;;;;883.33;96.68;;;;;;;;;;4945136;28;21167;-85
2023/10/29 05:53:06;;;;;;;847.72;91.95;;;;;;;;;;4946118;28;20052;-86
2023/10/29 05:55:33;;;;;;;819.30;86.97;;;;;;;;;;4967169;28;20029;-85
2023/10/29 05:58:00;;;;;;;776.28;82.93;;;;;;;;;;4961569;28;20033;-85
2023/10/29 06:00:27;;;;;;;832.67;89.40;;;;;;;;;;4960110;28;20036;-85
2023/10/29 06:02:54;;;;;;;839.28;88.65;;;;;;;;;;4940451;28;20266;-85
2023/10/29 06:05:23;;;;;;;1026.13;114.22;;;;;;;;;;4956458;28;20036;-86
2023/10/29 06:07:50;;;;;;;832.63;89.55;;;;;;;;;;4958693;28;20059;-85
2023/10/29 06:10:16;;;;;;;906.67;97.40;;;;;;;;;;4948515;28;20044;-86
2023/10/29 06:12:43;;;;;;;922.67;105.35;;;;;;;;;;4946351;28;20040;-85
2023/10/29 06:15:10;;;;;;;986.55;108.55;;;;;;;;;;4933448;28;20037;-85
2023/10/29 06:17:38;;;;;;;987.67;108.72;;;;;;;;;;4937821;28;20175;-85
2023/10/29 06:20:05;;;;;;;936.05;103.30;;;;;;;;;;4937701;28;20128;-85
2023/10/29 06:22:32;;;;;;;949.33;104.30;;;;;;;;;;4931545;28;20059;-85
2023/10/29 06:24:59;;;;;;;1099.72;122.38;;;;;;;;;;4919334;28;20087;-85
2023/10/29 06:27:26;;;;;;;872.28;96.18;;;;;;;;;;4924896;28;20963;-85
2023/10/29 06:29:53;;;;;;;961.45;105.57;;;;;;;;;;4926553;28;20344;-85
2023/10/29 06:32:20;;;;;;;1103.22;123.35;;;;;;;;;;4935770;28;20325;-86
2023/10/29 06:34:49;;;;;;;1394.82;160.50;;;;;;;;;;4893471;28;20159;-85
2023/10/29 06:37:23;;;;;;;1248.22;141.75;;;;;;;;;;4881990;28;20079;-85
2023/10/29 06:39:51;;;;;;;1001.53;109.40;;;;;;;;;;4924429;28;20095;-85
2023/10/29 06:42:18;;;;;;;926.67;99.68;;;;;;;;;;4940753;28;20060;-85
2023/10/29 06:44:45;;;;;;;885.30;95.38;;;;;;;;;;4947507;28;20098;-86
2023/10/29 06:47:14;;;;;;;1025.75;113.35;;;;;;;;;;4950509;28;21032;-84
2023/10/29 06:49:41;;;;;;;930.78;100.28;;;;;;;;;;4947598;28;20037;-85
2023/10/29 06:52:08;;;;;;;895.17;98.45;;;;;;;;;;4951010;28;20148;-85
2023/10/29 06:54:34;;;;;;;890.75;96.57;;;;;;;;;;4953797;28;20558;-85
2023/10/29 06:57:02;;;;;;;928.50;101.38;;;;;;;;;;4939455;28;20152;-84
2023/10/29 06:59:31;;;;;;;1053.28;116.65;;;;;;;;;;4954408;28;20110;-85
2023/10/29 07:01:59;;;;;;;902.75;98.80;;;;;;;;;;4935651;28;20037;-86
2023/10/29 07:04:26;;;;;;;972.42;106.53;;;;;;;;;;4946848;28;20044;-85
2023/10/29 07:06:53;;;;;;;909.03;100.45;;;;;;;;;;4947624;28;20995;-86
2023/10/29 07:09:19;;;;;;;987.78;108.05;;;;;;;;;;4936523;28;20045;-85
2023/10/29 07:11:48;;;;;;;960.15;106.25;;;;;;;;;;4943966;28;20048;-85
2023/10/29 07:14:14;;;;;;;1196.68;134.57;;;;;;;;;;4943542;28;20044;-84
2023/10/29 07:16:44;;;;;;;946.60;105.20;;;;;;;;;;4949823;28;20899;-85
2023/10/29 07:19:12;;;;;;;933.72;102.65;;;;;;;;;;4924087;28;20037;-84
2023/10/29 07:21:48;;;;;;;1051.65;117.18;;;;;;;;;;4918249;28;20045;-84
2023/10/29 07:24:14;;;;;;;1235.65;139.02;;;;;;;;;;4929399;28;20072;-84
2023/10/29 07:26:41;;;;;;;936.33;104.75;;;;;;;;;;4941049;28;20905;-84
2023/10/29 07:29:08;;;;;;;977.72;108.15;;;;;;;;;;4947448;28;20041;-84
2023/10/29 07:31:35;;;;;;;928.75;101.38;;;;;;;;;;4953930;28;20044;-85
2023/10/29 07:34:01;;;;;;;934.38;102.72;;;;;;;;;;4933228;28;20941;-85
2023/10/29 07:36:28;;;;;;;974.55;107.38;;;;;;;;;;4924476;28;20068;-84
2023/10/29 07:38:55;;;;;;;1349.68;152.93;;;;;;;;;;4900788;28;20049;-84
2023/10/29 07:41:26;;;;;;;1138.28;126.60;;;;;;;;;;4905380;28;20040;-84
2023/10/29 07:43:52;;;;;;;1385.47;157.55;;;;;;;;;;4886539;28;21090;-85
2023/10/29 07:46:20;;;;;;;1246.97;139.60;;;;;;;;;;4932467;28;20044;-84
2023/10/29 07:48:47;;;;;;;994.78;108.63;;;;;;;;;;4928763;28;20068;-84
2023/10/29 07:51:13;;;;;;;948.70;103.55;;;;;;;;;;4936572;28;20044;-84
2023/10/29 07:53:40;;;;;;;1253.07;138.63;;;;;;;;;;4936340;28;20060;-84
2023/10/29 07:56:08;;;;;;;956.47;103.55;;;;;;;;;;4925704;28;20037;-84
2023/10/29 07:58:36;;;;;;;1150.82;125.95;;;;;;;;;;4935023;28;20818;-84
2023/10/29 08:01:10;;;;;;;1099.82;120.70;;;;;;;;;;4930613;28;20984;-84
2023/10/29 08:03:36;;;;;;;1158.15;127.05;;;;;;;;;;4923514;28;20036;-84
2023/10/29 08:06:04;;;;;;;963.10;102.88;;;;;;;;;;4919336;28;20041;-84
2023/10/29 08:08:30;;;;;;;1288.50;143.55;;;;;;;;;;4928775;28;20902;-84
2023/10/29 08:10:57;;;;;;;1203.13;131.65;;;;;;;;;;4919272;28;20040;-84
2023/10/29 08:13:24;;;;;;;929.65;99.47;;;;;;;;;;4933499;28;21104;-84
2023/10/29 08:15:51;;;;;;;978.40;104.07;;;;;;;;;;4902307;28;20119;-84
2023/10/29 08:18:18;;;;;;;1600.03;183.10;;;;;;;;;;4904274;28;20041;-84
2023/10/29 08:20:48;;;;;;;1578.35;178.35;;;;;;;;;;4852345;28;20991;-83
2023/10/29 08:23:16;;;;;;;1544.40;176.43;;;;;;;;;;4850879;28;20049;-84
2023/10/29 08:25:45;;;;;;;1332.80;144.13;;;;;;;;;;4864307;28;20044;-84
2023/10/29 08:28:18;;;;;;;1283.63;138.43;;;;;;;;;;4888775;28;20053;-84
2023/10/29 08:30:55;;;;;;;1234.55;133.45;;;;;;;;;;4892481;28;20055;-84
2023/10/29 08:33:30;;;;;;;1269.00;138.57;;;;;;;;;;4885851;28;20918;-83
2023/10/29 08:35:58;;;;;;;990.88;103.70;;;;;;;;;;4912008;28;21060;-83
2023/10/29 08:38:26;;;;;;;1132.72;120.30;;;;;;;;;;4903679;28;20386;-83
2023/10/29 08:40:54;;;;;;;930.20;95.32;;;;;;;;;;4932768;28;20051;-83
2023/10/29 08:43:22;;;;;;;1179.85;125.35;;;;;;;;;;4862455;28;20048;-83
2023/10/29 08:45:50;;;;;;;1445.15;159.15;;;;;;;;;;4854983;28;20045;-83
2023/10/29 08:48:24;;;;;;;1248.47;133.45;;;;;;;;;;4888437;28;21018;-83
2023/10/29 08:50:53;;;;;;;948.97;97.28;;;;;;;;;;4901692;28;20778;-83
2023/10/29 08:53:22;;;;;;;1023.75;103.50;;;;;;;;;;4916423;28;20823;-87
2023/10/29 08:55:51;;;;;;;766.97;74.45;;;;;;;;;;4955436;28;20949;-88
2023/10/29 08:58:20;;;;;;;883.85;86.75;;;;;;;;;;4944777;28;20865;-87
2023/10/29 09:01:05;;;;;;;853.47;82.55;;;;;;;;;;4953283;28;20045;-88
2023/10/29 09:03:33;;;;;;;836.20;80.78;;;;;;;;;;4955885;28;20122;-88
2023/10/29 09:06:14;;;;;;;861.60;83.45;;;;;;;;;;4921058;28;20143;-87
2023/10/29 09:09:15;;;;;;;893.55;86.47;;;;;;;;;;4950039;28;20128;-87
2023/10/29 09:12:20;;;;;;;855.95;81.65;;;;;;;;;;4939909;28;20283;-86
2023/10/29 09:14:52;;;;;;;810.70;76.57;;;;;;;;;;4949430;28;20032;-87
2023/10/29 09:17:30;;;;;;;840.90;81.32;;;;;;;;;;4929229;28;20850;-87
2023/10/29 09:19:59;;;;;;;810.28;77.35;;;;;;;;;;4950015;28;20045;-88
2023/10/29 09:22:51;;;;;;;1134.32;110.07;;;;;;;;;;4943186;28;20045;-86
2023/10/29 10:32:43;;;;;;;895.65;84.90;;;;;;;;;;4911756;28;20224;-89
2023/10/29 12:37:52;;;;;;;;;;;;;;;;;;;;;
2023/10/29 12:45:15;;;;;;;864.10;81.38;;;;;;;;;;4873741;28;20313;-89
2023/10/29 12:47:53;;;;;;;930.65;87.70;;;;;;;;;;4886284;28;20679;-90
2023/10/29 12:50:26;;;;;;;1127.72;108.38;;;;;;;;;;4884092;28;20124;-90
2023/10/29 12:53:11;;;;;;;919.13;87.15;;;;;;;;;;4885875;28;20050;-91
2023/10/29 12:56:30;;;;;;;889.65;84.55;;;;;;;;;;4843137;28;21118;-90
2023/10/29 13:00:04;;;;;;;1032.95;97.70;;;;;;;;;;4819696;28;21552;-90
2023/10/29 13:03:27;;;;;;;834.30;77.07;;;;;;;;;;4857947;28;20054;-90
2023/10/29 13:06:26;;;;;;;117.05;10.95;;;;;;;;;;4847973;29;20082;-90
2023/10/29 13:16:39;;;;;;;120.70;9.20;;;;;;;;;;4935930;28;20051;-91
2023/10/29 13:19:54;;;;;;;283.13;23.00;;;;;;;;;;4915735;28;20424;-93
2023/10/29 17:59:12;;;;;;;708.60;62.92;;;;;;;;;;4986102;28;20442;-90
2023/10/29 18:02:50;;;;;;;1000.83;93.32;;;;;;;;;;4960393;28;20994;-89
2023/10/29 18:05:48;;;;;;;;;;;;;;;;;;;;;
2023/10/29 18:08:30;;;;;;;1021.10;97.45;;;;;;;;;;4944942;28;20948;-90
2023/10/29 18:11:39;;;;;;;;;;;;;;;;;;;;;
2023/10/29 18:14:50;;;;;;;1194.18;114.65;;;;;;;;;;4953623;28;20984;-90
2023/10/29 18:18:06;;;;;;;1101.20;108.43;;;;;;;;;;4943151;28;20056;-90
2023/10/29 18:20:57;;;;;;;839.17;77.60;;;;;;;;;;4946743;28;20915;-90
2023/10/29 18:24:38;;;;;;;959.22;90.65;;;;;;;;;;4916672;28;20189;-90
2023/10/29 18:27:57;;;;;;;744.00;67.32;;;;;;;;;;4898015;28;20780;-91
2023/10/29 18:31:19;;;;;;;853.20;80.70;;;;;;;;;;4875571;28;20054;-90
2023/10/29 18:35:26;;;;;;;786.00;72.22;;;;;;;;;;4786804;29;20088;-90
2023/10/29 18:38:36;;;;;;;1108.18;104.80;;;;;;;;;;4772996;29;20045;-90
2023/10/29 18:41:41;;;;;;;1105.25;107.60;;;;;;;;;;4794686;29;20052;-90
2023/10/29 18:45:17;;;;;;;946.65;89.95;;;;;;;;;;4820224;29;20051;-90
2023/10/29 19:04:46;;;;;;;717.70;65.72;;;;;;;;;;4940126;28;20073;-90
2023/10/29 19:07:34;;;;;;;810.65;75.57;;;;;;;;;;4810347;28;20137;-89
2023/10/29 19:10:56;;;;;;;803.63;74.57;;;;;;;;;;4863601;28;20106;-90
2023/10/29 19:22:28;;;;;;;844.85;80.32;;;;;;;;;;4871000;28;20117;-90
2023/10/29 19:25:11;;;;;;;960.67;92.90;;;;;;;;;;4854161;28;20044;-91
2023/10/29 19:28:07;;;;;;;781.83;72.57;;;;;;;;;;4861600;28;21011;-90
2023/10/29 19:30:51;;;;;;;803.13;74.65;;;;;;;;;;4860464;28;20043;-90
2023/10/29 19:33:50;;;;;;;1018.53;95.78;;;;;;;;;;4850214;28;20046;-90
2023/10/29 19:36:41;;;;;;;859.83;82.00;;;;;;;;;;4857796;28;20046;-90
2023/10/29 19:39:15;;;;;;;785.60;74.07;;;;;;;;;;4889723;28;20039;-90
2023/10/29 19:41:51;;;;;;;931.45;88.97;;;;;;;;;;4893565;28;20042;-90
2023/10/29 19:52:16;;;;;;;686.40;60.15;;;;;;;;;;4848993;29;20154;-92
2023/10/29 19:54:47;;;;;;;613.70;54.78;;;;;;;;;;4934764;28;20137;-92
2023/10/29 19:57:35;;;;;;;664.25;60.25;;;;;;;;;;4915290;28;20099;-91
2023/10/29 20:03:45;;;;;;;185.32;18.17;;;;;;;;;;4929435;28;20042;-92
2023/10/29 20:06:29;;;;;;;574.45;50.72;;;;;;;;;;4904918;28;20074;-92
2023/10/29 20:12:34;;;;;;;790.50;75.30;;;;;;;;;;4868390;28;20130;-89
2023/10/29 20:15:03;;;;;;;927.45;90.30;;;;;;;;;;4870519;28;20970;-88
2023/10/29 20:17:32;;;;;;;1251.75;128.90;;;;;;;;;;4848970;28;20843;-87
2023/10/29 20:19:59;;;;;;;876.28;84.10;;;;;;;;;;4864727;28;20150;-87
2023/10/29 20:22:25;;;;;;;922.30;89.70;;;;;;;;;;4845210;28;20154;-87
2023/10/29 20:24:54;;;;;;;833.03;78.97;;;;;;;;;;4863560;28;20149;-87
2023/10/29 20:27:21;;;;;;;850.47;80.07;;;;;;;;;;4867759;28;20047;-87
2023/10/29 20:29:48;;;;;;;1014.63;100.25;;;;;;;;;;4866746;28;21347;-88
2023/10/29 20:32:15;;;;;;;885.92;85.72;;;;;;;;;;4872109;28;20042;-88
2023/10/29 20:34:42;;;;;;;852.55;82.68;;;;;;;;;;4868274;28;20051;-88
2023/10/29 20:37:09;;;;;;;885.90;89.07;;;;;;;;;;4866588;28;20145;-88
2023/10/29 20:39:36;;;;;;;920.35;92.90;;;;;;;;;;4855901;28;20057;-88
2023/10/29 20:42:03;;;;;;;1027.82;102.82;;;;;;;;;;4888401;28;20960;-87
2023/10/29 20:44:31;;;;;;;970.97;96.28;;;;;;;;;;4882901;28;20050;-88
2023/10/29 20:46:57;;;;;;;873.13;83.80;;;;;;;;;;4897011;28;20077;-87
2023/10/29 20:49:24;;;;;;;850.92;80.57;;;;;;;;;;4932093;28;20653;-88
2023/10/29 20:51:51;;;;;;;835.83;78.25;;;;;;;;;;4954351;28;20873;-88
2023/10/29 20:54:17;;;;;;;893.88;85.68;;;;;;;;;;4953024;28;20105;-88
2023/10/29 20:56:44;;;;;;;861.83;82.43;;;;;;;;;;4959458;28;20049;-88
2023/10/29 20:59:10;;;;;;;920.85;88.90;;;;;;;;;;4958307;28;20101;-88
2023/10/29 21:01:37;;;;;;;886.97;84.53;;;;;;;;;;4959119;28;20044;-88
2023/10/29 21:04:04;;;;;;;853.35;81.00;;;;;;;;;;4953457;28;20040;-88
2023/10/29 21:06:33;;;;;;;930.13;89.47;;;;;;;;;;4955341;28;20041;-88
2023/10/29 21:09:00;;;;;;;966.10;93.63;;;;;;;;;;4954267;28;20089;-88
2023/10/29 21:11:28;;;;;;;1107.63;111.78;;;;;;;;;;4936440;28;20045;-88
2023/10/29 21:13:55;;;;;;;929.60;89.25;;;;;;;;;;4933119;28;21252;-88
2023/10/29 21:16:23;;;;;;;950.70;92.00;;;;;;;;;;4954475;28;20041;-88
2023/10/29 21:18:50;;;;;;;853.45;80.60;;;;;;;;;;4962276;28;20072;-88
2023/10/29 21:21:16;;;;;;;805.85;74.93;;;;;;;;;;4965693;28;20140;-88
2023/10/29 21:23:43;;;;;;;845.03;80.15;;;;;;;;;;4966048;28;20044;-88
2023/10/29 21:26:09;;;;;;;737.72;67.20;;;;;;;;;;4970272;28;21007;-89
2023/10/29 21:28:36;;;;;;;788.83;73.55;;;;;;;;;;4972839;28;20996;-89
2023/10/29 21:31:05;;;;;;;837.00;79.50;;;;;;;;;;4975369;28;20135;-89
2023/10/29 21:33:34;;;;;;;1024.10;95.95;;;;;;;;;;4962440;28;20040;-89
2023/10/29 21:36:02;;;;;;;863.53;80.75;;;;;;;;;;4932713;28;20045;-89
2023/10/29 21:38:29;;;;;;;1054.30;99.50;;;;;;;;;;4935424;28;20149;-88
2023/10/29 21:41:02;;;;;;;836.30;79.35;;;;;;;;;;4951322;28;20045;-89
2023/10/29 21:43:32;;;;;;;781.53;73.95;;;;;;;;;;4953746;28;20055;-89
2023/10/29 21:46:03;;;;;;;755.47;70.88;;;;;;;;;;4937068;28;20135;-89
2023/10/29 21:48:30;;;;;;;791.83;74.88;;;;;;;;;;4954857;28;20052;-89
2023/10/29 21:50:57;;;;;;;836.63;79.15;;;;;;;;;;4952159;28;20052;-89
2023/10/29 21:53:25;;;;;;;915.00;88.07;;;;;;;;;;4936030;28;20052;-89
2023/10/29 21:55:52;;;;;;;734.47;68.85;;;;;;;;;;4942881;28;20053;-89
2023/10/29 21:58:21;;;;;;;795.47;74.65;;;;;;;;;;4941142;28;20056;-89
2023/10/29 22:00:49;;;;;;;680.40;62.33;;;;;;;;;;4959536;28;21110;-89
2023/10/29 22:03:17;;;;;;;696.05;63.55;;;;;;;;;;4964886;28;20542;-89
2023/10/29 22:05:54;;;;;;;766.80;71.75;;;;;;;;;;4966677;28;20052;-89
2023/10/29 22:08:21;;;;;;;810.05;77.35;;;;;;;;;;4943761;28;20049;-90
2023/10/29 22:10:58;;;;;;;74.20;9.38;;;;;;;;;;5013207;28;20059;-92
2023/10/29 22:13:33;;;;;;;40.78;6.72;;;;;;;;;;5036601;28;20483;-91
2023/10/29 22:16:11;;;;;;;13.27;5.65;;;;;;;;;;5049352;28;20040;-92
2023/10/29 22:22:12;;;;;;;28.83;6.47;;;;;;;;;;4979734;28;20067;-91
2023/10/29 22:28:15;;;;;;;;;;;;;;;;;;;;;
2023/10/29 22:43:14;;;;;;;61.80;8.23;;;;;;;;;;4949681;28;20022;-91
2023/10/29 22:45:42;;;;;;;55.10;8.85;;;;;;;;;;4947262;28;20102;-91
2023/10/29 22:48:10;;;;;;;31.00;6.75;;;;;;;;;;4950804;28;20039;-91
2023/10/29 22:50:37;;;;;;;153.00;14.30;;;;;;;;;;4951383;28;20091;-91
2023/10/29 22:53:04;;;;;;;66.30;9.20;;;;;;;;;;5003540;28;20095;-91
2023/10/29 22:55:38;;;;;;;76.50;8.93;;;;;;;;;;5012010;28;20037;-91
2023/10/29 22:58:14;;;;;;;34.72;6.65;;;;;;;;;;5005682;28;20392;-91
2023/10/29 23:00:45;;;;;;;;;;;;;;;;;;5023280;28;20037;-91
2023/10/29 23:03:17;;;;;;;20.15;6.22;;;;;;;;;;5046937;28;20347;-91
2023/10/29 23:05:44;;;;;;;92.05;10.15;;;;;;;;;;5041345;28;20033;-92
2023/10/29 23:08:12;;;;;;;27.83;6.22;;;;;;;;;;5017494;28;20043;-91
2023/10/29 23:10:42;;;;;;;31.17;6.95;;;;;;;;;;5041607;28;20032;-91
2023/10/29 23:13:15;;;;;;;71.07;8.45;;;;;;;;;;5034104;28;20045;-91
2023/10/29 23:25:50;;;;;;;72.95;8.50;;;;;;;;;;5046314;28;20520;-91
2023/10/29 23:28:52;;;;;;;30.17;5.80;;;;;;;;;;5042292;28;20056;-91
2023/10/29 23:31:30;;;;;;;49.00;7.35;;;;;;;;;;5054580;28;20047;-91
2023/10/29 23:34:06;;;;;;;26.13;6.63;;;;;;;;;;5027012;28;20044;-91
2023/10/29 23:36:41;;;;;;;61.58;8.13;;;;;;;;;;5047429;28;20033;-91
2023/10/29 23:39:23;;;;;;;;;;;;;;;;;;;;;
2023/10/29 23:42:09;;;;;;;42.85;7.32;;;;;;;;;;5062089;28;20048;-91
2023/10/29 23:45:11;;;;;;;94.05;9.15;;;;;;;;;;4992141;28;20481;-91
2023/10/29 23:47:39;;;;;;;273.52;22.45;;;;;;;;;;4997867;28;20067;-91
2023/10/29 23:50:06;;;;;;;22.00;5.43;;;;;;;;;;5031336;28;20049;-91
2023/10/29 23:52:33;;;;;;;18.05;5.35;;;;;;;;;;5044320;28;20135;-91